Panda — PBCS — position and weather

sailwx.info

Track history (hours):
 
Tides and Currents Weather Stations Pressure Air Temp Water Temp Dewpoint Dewpoint Depression Visibility Wind Speed Wind Dir Waves Ship Positions

Panda

Last reported at 2016-May-06 04:33 UTC. Time now 2016-May-06 05:34 UTC.
Position N 57°44' E 009°49'.

Length 89 m; draft 5.5 m.

Type: Cargo ship. MMSI: 245014000.

Date/timePositionNaut miles runAvg speedWind from/ knotsBaromVisibWave heightAir tempDewpointWater temp
2016-May-06 04:33N 57°44' E 009°49'9 9.3
2016-May-06 03:33N 57°45' E 010°06'9 9.0
2016-May-06 02:33N 57°46' E 010°23'9 8.7
2016-May-06 01:33N 57°48' E 010°39'7 7.0
2016-May-06 00:33N 57°42' E 010°47'10 9.6
2016-May-05 23:33N 57°33' E 010°46'1010.2
2016-May-05 22:33N 57°23' E 010°45'1110.5
2016-May-05 21:33N 57°12' E 010°45'1010.1
2016-May-05 20:32N 57°02' E 010°50'1010.0
2016-May-05 19:33N 56°53' E 010°55'10 9.9
2016-May-05 18:32N 56°43' E 010°59'10 9.8
2016-May-05 17:32N 56°33' E 010°60'10 9.8
2016-May-05 16:33N 56°23' E 011°00'9 9.4
2016-May-05 15:33N 56°15' E 010°52'9 9.5
2016-May-05 14:33N 56°07' E 010°45'10 9.8
2016-May-05 13:33N 56°06' E 010°27'8 7.5
2016-May-05 12:33N 56°12' E 010°19'3 2.5
2016-May-05 11:31N 56°15' E 010°21'0 0.0
2016-May-05 10:31N 56°15' E 010°21'0 0.0
2016-May-05 09:31N 56°15' E 010°21'0 0.0
2016-May-05 08:31N 56°15' E 010°21'0 0.0
2016-May-05 07:31N 56°15' E 010°21'0 0.0
2016-May-05 06:31N 56°15' E 010°21'0 0.0
2016-May-05 05:31N 56°15' E 010°21'0 0.0
2016-May-05 04:31N 56°15' E 010°21'2 1.7
2016-May-05 03:33N 56°13' E 010°20'5 5.2
2016-May-05 02:31N 56°08' E 010°18'0 0.0
2016-May-05 01:31N 56°08' E 010°18'0 0.1
2016-May-05 00:31N 56°08' E 010°18'0 0.0
2016-May-04 23:31N 56°08' E 010°18'0 0.0
2016-May-04 22:31N 56°08' E 010°18'0 0.3
2016-May-04 21:33N 56°08' E 010°18'9 8.8
2016-May-04 20:34N 56°01' E 010°27'1210.5
2016-May-04 19:24N 55°48' E 010°30'  
2016-May-02 06:05N 55°28' E 009°43'710.8
2016-May-02 05:29N 55°21' E 009°46'8 8.3
2016-May-02 04:33N 55°14' E 009°48'1010.1
2016-May-02 03:32N 55°05' E 009°58'1010.3
2016-May-02 02:33N 54°56' E 010°06'1010.2
2016-May-02 01:33N 54°46' E 010°11'1010.2
2016-May-02 00:33N 54°37' E 010°16'9 9.0
2016-May-01 23:33N 54°28' E 010°16'7 7.0
2016-May-01 22:33N 54°22' E 010°09'4 4.3
2016-May-01 21:33N 54°22' E 010°01'7 7.4
2016-May-01 20:33N 54°22' E 009°48'22 6.4
2016-May-01 17:08N 54°07' E 009°20'5 8.4
2016-May-01 16:32N 54°03' E 009°18'8 8.3
2016-May-01 15:34N 53°55' E 009°12'3 2.6
2016-May-01 14:34N 53°54' E 009°09'1 1.4
2016-May-01 13:33N 53°53' E 009°06'5 5.1
2016-May-01 12:34N 53°51' E 008°59'7 6.8
2016-May-01 11:34N 53°50' E 008°47'6 6.1
2016-May-01 10:33N 53°55' E 008°40'7 6.6
2016-May-01 09:33N 53°58' E 008°30'8 7.9
2016-May-01 08:33N 53°59' E 008°17'9 8.7
2016-May-01 07:33N 53°58' E 008°03'9 9.1
2016-May-01 06:33N 53°56' E 007°48'10 9.6
2016-May-01 05:33N 53°54' E 007°32'10 9.9
2016-May-01 04:33N 53°52' E 007°15'1010.3
2016-May-01 03:33N 53°49' E 006°58'1110.5
2016-May-01 02:33N 53°47' E 006°41'1110.7
2016-May-01 01:34N 53°44' E 006°23'1110.6
2016-May-01 00:33N 53°41' E 006°06'1010.5
2016-Apr-30 23:33N 53°38' E 005°50'1010.3
2016-Apr-30 22:34N 53°35' E 005°33'1010.0
2016-Apr-30 21:33N 53°32' E 005°17'10 9.7
2016-Apr-30 20:33N 53°28' E 005°01'41 8.1
2016-Apr-30 15:32N 52°57' E 004°19'9 7.6
2016-Apr-30 14:22N 52°49' E 004°13'72 8.8
2016-Apr-30 06:15N 51°46' E 003°17'6 8.4
2016-Apr-30 05:33N 51°40' E 003°20'9 8.8
2016-Apr-30 04:33N 51°32' E 003°26'8 7.6
2016-Apr-30 03:33N 51°26' E 003°34'7 7.4
2016-Apr-30 02:33N 51°23' E 003°44'8 7.9
2016-Apr-30 01:33N 51°23' E 003°57'6 5.5
2016-Apr-30 00:33N 51°22' E 004°05'7 7.4
2016-Apr-29 23:33N 51°21' E 004°17'0 0.0
2016-Apr-29 22:33N 51°21' E 004°17'2 2.1
2016-Apr-29 21:34N 51°19' E 004°19'3 2.8
2016-Apr-29 20:29N 51°17' E 004°22'0 0.0
2016-Apr-29 19:32N 51°17' E 004°22'0 0.0
2016-Apr-29 18:32N 51°17' E 004°22'0 0.0
2016-Apr-29 17:32N 51°17' E 004°22'0 0.0
2016-Apr-29 16:32N 51°17' E 004°22'0 0.0
2016-Apr-29 15:32N 51°17' E 004°22'0 0.0
2016-Apr-29 14:32N 51°17' E 004°22'0 0.0
2016-Apr-29 13:29N 51°17' E 004°22'0 0.0
2016-Apr-29 12:32N 51°17' E 004°22'0 0.0
2016-Apr-29 11:32N 51°17' E 004°22'0 0.0
2016-Apr-29 10:32N 51°17' E 004°22'0 0.0
2016-Apr-29 09:32N 51°17' E 004°22'0 0.0
2016-Apr-29 08:32N 51°17' E 004°22'0 0.0
2016-Apr-29 07:32N 51°17' E 004°22'0 0.0
2016-Apr-29 06:32N 51°17' E 004°22'0 0.0
2016-Apr-29 05:32N 51°17' E 004°22'0 0.0
2016-Apr-29 04:32N 51°17' E 004°22'0 0.0
2016-Apr-29 03:32N 51°17' E 004°22'0 0.0
2016-Apr-29 02:32N 51°17' E 004°22'0 0.0
2016-Apr-29 01:32N 51°17' E 004°22'0 0.0
2016-Apr-29 00:32N 51°17' E 004°22'0 0.0
2016-Apr-28 23:29N 51°17' E 004°22'0 0.0
2016-Apr-28 22:32N 51°17' E 004°22'0 0.0
2016-Apr-28 21:32N 51°17' E 004°22'0 0.0
2016-Apr-28 20:32N 51°17' E 004°22'0 0.0
2016-Apr-28 19:32N 51°17' E 004°22'0 0.0
2016-Apr-28 18:32N 51°17' E 004°22'0 0.0
2016-Apr-28 17:32N 51°17' E 004°22'0 0.0
2016-Apr-28 16:31N 51°17' E 004°22'0 0.0
2016-Apr-28 15:31N 51°17' E 004°22'0 0.0
2016-Apr-28 14:31N 51°17' E 004°22'0 0.0
2016-Apr-28 13:31N 51°17' E 004°22'0 0.0
2016-Apr-28 12:31N 51°17' E 004°22'0 0.0
2016-Apr-28 11:31N 51°17' E 004°22'0 0.0
2016-Apr-28 10:31N 51°17' E 004°22'0 0.0
2016-Apr-28 09:31N 51°17' E 004°22'0 0.0
2016-Apr-28 08:31N 51°17' E 004°22'0 0.0
2016-Apr-28 07:31N 51°17' E 004°22'0 0.0
2016-Apr-28 06:31N 51°17' E 004°22'0 0.0
2016-Apr-28 05:31N 51°17' E 004°22'0 0.0
2016-Apr-28 04:31N 51°17' E 004°22'0 0.0
2016-Apr-28 03:31N 51°17' E 004°22'0 0.0
2016-Apr-28 02:31N 51°17' E 004°22'1 0.6
2016-Apr-28 01:33N 51°17' E 004°21'1 1.0
2016-Apr-28 00:33N 51°17' E 004°20'2 2.2
2016-Apr-27 23:33N 51°18' E 004°17'7 6.9
2016-Apr-27 22:33N 51°24' E 004°11'6 5.6
2016-Apr-27 21:33N 51°24' E 004°02'4 4.5
2016-Apr-27 20:33N 51°22' E 003°55'6 6.5
2016-Apr-27 19:33N 51°22' E 003°45'8 7.6
2016-Apr-27 18:33N 51°25' E 003°34'8 8.3
2016-Apr-27 17:33N 51°32' E 003°26'9 8.6
2016-Apr-27 16:33N 51°39' E 003°19'7110.1
2016-Apr-27 09:33N 52°31' E 002°00'1211.8
2016-Apr-27 08:34N 52°40' E 001°50'1111.4
2016-Apr-27 07:34N 52°49' E 001°37'1010.1
2016-Apr-27 06:33N 52°56' E 001°25'9 9.3
2016-Apr-27 05:33N 53°00' E 001°11'9 8.6
2016-Apr-27 04:30N 53°06' E 000°59'8 8.7
2016-Apr-27 03:32N 53°11' E 000°49'9 8.6
2016-Apr-27 02:33N 53°18' E 000°39'9 9.1
2016-Apr-27 01:33N 53°24' E 000°29'9 9.1
2016-Apr-27 00:33N 53°31' E 000°18'10 9.9
2016-Apr-26 23:33N 53°35' E 000°03'1413.6
2016-Apr-26 22:33N 53°43' W 000°15'1110.9
2016-Apr-26 21:32N 53°42' W 000°34'  
Track history (hours):
 
Tides and Currents Weather Stations Pressure Air Temp Water Temp Dewpoint Dewpoint Depression Visibility Wind Speed Wind Dir Waves Ship Positions

Panda

Last reported at 2016-May-06 04:33 UTC. Time now 2016-May-06 05:34 UTC.
Position N 57°44' E 009°49'.

Length 89 m; draft 5.5 m.

Type: Cargo ship. MMSI: 245014000.

Date/timePositionNaut miles runAvg speedWind from/ knotsBaromVisibWave heightAir tempDewpointWater temp
2016-May-06 04:33N 57°44' E 009°49'9 9.3
2016-May-06 03:33N 57°45' E 010°06'9 9.0
2016-May-06 02:33N 57°46' E 010°23'9 8.7
2016-May-06 01:33N 57°48' E 010°39'7 7.0
2016-May-06 00:33N 57°42' E 010°47'10 9.6
2016-May-05 23:33N 57°33' E 010°46'1010.2
2016-May-05 22:33N 57°23' E 010°45'1110.5
2016-May-05 21:33N 57°12' E 010°45'1010.1
2016-May-05 20:32N 57°02' E 010°50'1010.0
2016-May-05 19:33N 56°53' E 010°55'10 9.9
2016-May-05 18:32N 56°43' E 010°59'10 9.8
2016-May-05 17:32N 56°33' E 010°60'10 9.8
2016-May-05 16:33N 56°23' E 011°00'9 9.4
2016-May-05 15:33N 56°15' E 010°52'9 9.5
2016-May-05 14:33N 56°07' E 010°45'10 9.8
2016-May-05 13:33N 56°06' E 010°27'8 7.5
2016-May-05 12:33N 56°12' E 010°19'3 2.5
2016-May-05 11:31N 56°15' E 010°21'0 0.0
2016-May-05 10:31N 56°15' E 010°21'0 0.0
2016-May-05 09:31N 56°15' E 010°21'0 0.0
2016-May-05 08:31N 56°15' E 010°21'0 0.0
2016-May-05 07:31N 56°15' E 010°21'0 0.0
2016-May-05 06:31N 56°15' E 010°21'0 0.0
2016-May-05 05:31N 56°15' E 010°21'0 0.0
2016-May-05 04:31N 56°15' E 010°21'2 1.7
2016-May-05 03:33N 56°13' E 010°20'5 5.2
2016-May-05 02:31N 56°08' E 010°18'0 0.0
2016-May-05 01:31N 56°08' E 010°18'0 0.1
2016-May-05 00:31N 56°08' E 010°18'0 0.0
2016-May-04 23:31N 56°08' E 010°18'0 0.0
2016-May-04 22:31N 56°08' E 010°18'0 0.3
2016-May-04 21:33N 56°08' E 010°18'9 8.8
2016-May-04 20:34N 56°01' E 010°27'1210.5
2016-May-04 19:24N 55°48' E 010°30'  
2016-May-02 06:05N 55°28' E 009°43'710.8
2016-May-02 05:29N 55°21' E 009°46'8 8.3
2016-May-02 04:33N 55°14' E 009°48'1010.1
2016-May-02 03:32N 55°05' E 009°58'1010.3
2016-May-02 02:33N 54°56' E 010°06'1010.2
2016-May-02 01:33N 54°46' E 010°11'1010.2
2016-May-02 00:33N 54°37' E 010°16'9 9.0
2016-May-01 23:33N 54°28' E 010°16'7 7.0
2016-May-01 22:33N 54°22' E 010°09'4 4.3
2016-May-01 21:33N 54°22' E 010°01'7 7.4
2016-May-01 20:33N 54°22' E 009°48'22 6.4
2016-May-01 17:08N 54°07' E 009°20'5 8.4
2016-May-01 16:32N 54°03' E 009°18'8 8.3
2016-May-01 15:34N 53°55' E 009°12'3 2.6
2016-May-01 14:34N 53°54' E 009°09'1 1.4
2016-May-01 13:33N 53°53' E 009°06'5 5.1
2016-May-01 12:34N 53°51' E 008°59'7 6.8
2016-May-01 11:34N 53°50' E 008°47'6 6.1
2016-May-01 10:33N 53°55' E 008°40'7 6.6
2016-May-01 09:33N 53°58' E 008°30'8 7.9
2016-May-01 08:33N 53°59' E 008°17'9 8.7
2016-May-01 07:33N 53°58' E 008°03'9 9.1
2016-May-01 06:33N 53°56' E 007°48'10 9.6
2016-May-01 05:33N 53°54' E 007°32'10 9.9
2016-May-01 04:33N 53°52' E 007°15'1010.3
2016-May-01 03:33N 53°49' E 006°58'1110.5
2016-May-01 02:33N 53°47' E 006°41'1110.7
2016-May-01 01:34N 53°44' E 006°23'1110.6
2016-May-01 00:33N 53°41' E 006°06'1010.5
2016-Apr-30 23:33N 53°38' E 005°50'1010.3
2016-Apr-30 22:34N 53°35' E 005°33'1010.0
2016-Apr-30 21:33N 53°32' E 005°17'10 9.7
2016-Apr-30 20:33N 53°28' E 005°01'41 8.1
2016-Apr-30 15:32N 52°57' E 004°19'9 7.6
2016-Apr-30 14:22N 52°49' E 004°13'72 8.8
2016-Apr-30 06:15N 51°46' E 003°17'6 8.4
2016-Apr-30 05:33N 51°40' E 003°20'9 8.8
2016-Apr-30 04:33N 51°32' E 003°26'8 7.6
2016-Apr-30 03:33N 51°26' E 003°34'7 7.4
2016-Apr-30 02:33N 51°23' E 003°44'8 7.9
2016-Apr-30 01:33N 51°23' E 003°57'6 5.5
2016-Apr-30 00:33N 51°22' E 004°05'7 7.4
2016-Apr-29 23:33N 51°21' E 004°17'0 0.0
2016-Apr-29 22:33N 51°21' E 004°17'2 2.1
2016-Apr-29 21:34N 51°19' E 004°19'3 2.8
2016-Apr-29 20:29N 51°17' E 004°22'0 0.0
2016-Apr-29 19:32N 51°17' E 004°22'0 0.0
2016-Apr-29 18:32N 51°17' E 004°22'0 0.0
2016-Apr-29 17:32N 51°17' E 004°22'0 0.0
2016-Apr-29 16:32N 51°17' E 004°22'0 0.0
2016-Apr-29 15:32N 51°17' E 004°22'0 0.0
2016-Apr-29 14:32N 51°17' E 004°22'0 0.0
2016-Apr-29 13:29N 51°17' E 004°22'0 0.0
2016-Apr-29 12:32N 51°17' E 004°22'0 0.0
2016-Apr-29 11:32N 51°17' E 004°22'0 0.0
2016-Apr-29 10:32N 51°17' E 004°22'0 0.0
2016-Apr-29 09:32N 51°17' E 004°22'0 0.0
2016-Apr-29 08:32N 51°17' E 004°22'0 0.0
2016-Apr-29 07:32N 51°17' E 004°22'0 0.0
2016-Apr-29 06:32N 51°17' E 004°22'0 0.0
2016-Apr-29 05:32N 51°17' E 004°22'0 0.0
2016-Apr-29 04:32N 51°17' E 004°22'0 0.0
2016-Apr-29 03:32N 51°17' E 004°22'0 0.0
2016-Apr-29 02:32N 51°17' E 004°22'0 0.0
2016-Apr-29 01:32N 51°17' E 004°22'0 0.0
2016-Apr-29 00:32N 51°17' E 004°22'0 0.0
2016-Apr-28 23:29N 51°17' E 004°22'0 0.0
2016-Apr-28 22:32N 51°17' E 004°22'0 0.0
2016-Apr-28 21:32N 51°17' E 004°22'0 0.0
2016-Apr-28 20:32N 51°17' E 004°22'0 0.0
2016-Apr-28 19:32N 51°17' E 004°22'0 0.0
2016-Apr-28 18:32N 51°17' E 004°22'0 0.0
2016-Apr-28 17:32N 51°17' E 004°22'0 0.0
2016-Apr-28 16:31N 51°17' E 004°22'0 0.0
2016-Apr-28 15:31N 51°17' E 004°22'0 0.0
2016-Apr-28 14:31N 51°17' E 004°22'0 0.0
2016-Apr-28 13:31N 51°17' E 004°22'0 0.0
2016-Apr-28 12:31N 51°17' E 004°22'0 0.0
2016-Apr-28 11:31N 51°17' E 004°22'0 0.0
2016-Apr-28 10:31N 51°17' E 004°22'0 0.0
2016-Apr-28 09:31N 51°17' E 004°22'0 0.0
2016-Apr-28 08:31N 51°17' E 004°22'0 0.0
2016-Apr-28 07:31N 51°17' E 004°22'0 0.0
2016-Apr-28 06:31N 51°17' E 004°22'0 0.0
2016-Apr-28 05:31N 51°17' E 004°22'0 0.0
2016-Apr-28 04:31N 51°17' E 004°22'0 0.0
2016-Apr-28 03:31N 51°17' E 004°22'0 0.0
2016-Apr-28 02:31N 51°17' E 004°22'1 0.6
2016-Apr-28 01:33N 51°17' E 004°21'1 1.0
2016-Apr-28 00:33N 51°17' E 004°20'2 2.2
2016-Apr-27 23:33N 51°18' E 004°17'7 6.9
2016-Apr-27 22:33N 51°24' E 004°11'6 5.6
2016-Apr-27 21:33N 51°24' E 004°02'4 4.5
2016-Apr-27 20:33N 51°22' E 003°55'6 6.5
2016-Apr-27 19:33N 51°22' E 003°45'8 7.6
2016-Apr-27 18:33N 51°25' E 003°34'8 8.3
2016-Apr-27 17:33N 51°32' E 003°26'9 8.6
2016-Apr-27 16:33N 51°39' E 003°19'7110.1
2016-Apr-27 09:33N 52°31' E 002°00'1211.8
2016-Apr-27 08:34N 52°40' E 001°50'1111.4
2016-Apr-27 07:34N 52°49' E 001°37'1010.1
2016-Apr-27 06:33N 52°56' E 001°25'9 9.3
2016-Apr-27 05:33N 53°00' E 001°11'9 8.6
2016-Apr-27 04:30N 53°06' E 000°59'8 8.7
2016-Apr-27 03:32N 53°11' E 000°49'9 8.6
2016-Apr-27 02:33N 53°18' E 000°39'9 9.1
2016-Apr-27 01:33N 53°24' E 000°29'9 9.1
2016-Apr-27 00:33N 53°31' E 000°18'10 9.9
2016-Apr-26 23:33N 53°35' E 000°03'1413.6
2016-Apr-26 22:33N 53°43' W 000°15'1110.9
2016-Apr-26 21:32N 53°42' W 000°34'  

Dump ship's entire track history